Time;durP1;ratioP1;P1;durP2;ratioP2;P2;SDS_P1;SDS_P2;PMS_P1;PMS_P2;Temp;Humidity;BMP_temperature;BMP_pressure;BME280_temperature;BME280_humidity;BME280_pressure;Samples;Min_cycle;Max_cycle;Signal;HPM_P1;HPM_P2
2022/10/03 00:01:56;;;;;;;;;3.50;3.50;;;;;11.03;77.93;100709.38;5036459;28;8852;-60
2022/10/03 00:04:23;;;;;;;;;6.00;6.00;;;;;11.00;78.48;100712.22;5036917;28;8847;-61
2022/10/03 00:06:51;;;;;;;;;4.00;4.00;;;;;11.00;78.42;100717.56;5037052;28;8921;-60
2022/10/03 00:09:19;;;;;;;;;6.00;3.00;;;;;11.00;78.61;100706.91;5036340;28;8812;-60
2022/10/03 00:11:46;;;;;;;;;3.75;3.75;;;;;11.00;78.30;100711.41;5036991;28;9529;-61
2022/10/03 00:14:14;;;;;;;;;0.50;0.00;;;;;10.98;78.56;100703.50;5036793;28;8839;-60
2022/10/03 00:16:42;;;;;;;;;6.00;5.00;;;;;10.98;78.66;100714.16;5035083;28;8844;-61
2022/10/03 00:19:09;;;;;;;;;3.75;3.25;;;;;10.97;78.16;100716.91;5034985;28;8820;-61
2022/10/03 00:21:37;;;;;;;;;3.00;3.00;;;;;10.96;78.51;100715.22;5036636;28;8835;-61
2022/10/03 00:24:05;;;;;;;;;0.75;0.75;;;;;10.95;78.70;100719.72;5036922;28;9608;-60
2022/10/03 00:26:33;;;;;;;;;4.50;4.00;;;;;10.93;78.52;100721.59;5036853;28;8823;-60
2022/10/03 00:29:00;;;;;;;;;3.00;3.00;;;;;10.93;78.64;100724.25;5035924;28;8898;-60
2022/10/03 00:31:28;;;;;;;;;2.00;1.00;;;;;10.92;78.81;100735.06;5036053;28;8816;-60
2022/10/03 00:33:56;;;;;;;;;3.50;2.00;;;;;10.90;78.08;100732.47;5036657;28;8856;-61
2022/10/03 00:36:24;;;;;;;;;6.75;4.00;;;;;10.89;78.33;100733.44;5036447;28;8832;-60
2022/10/03 00:38:51;;;;;;;;;4.00;3.00;;;;;10.89;79.01;100733.44;5036046;28;8808;-60
2022/10/03 00:41:19;;;;;;;;;3.00;3.00;;;;;10.89;78.73;100737.91;5036168;28;9474;-60
2022/10/03 00:43:49;;;;;;;;;3.50;3.50;;;;;10.88;78.36;100739.75;5036634;28;9599;-60
2022/10/03 00:46:17;;;;;;;;;3.00;3.00;;;;;10.86;78.87;100738.97;5035643;28;8832;-61
2022/10/03 00:48:45;;;;;;;;;3.00;2.50;;;;;10.87;78.92;100742.50;5034335;28;9010;-59
2022/10/03 00:51:13;;;;;;;;;5.00;4.50;;;;;10.86;78.51;100744.28;5036281;28;8831;-60
2022/10/03 00:53:40;;;;;;;;;5.00;4.00;;;;;10.87;78.65;100750.50;5035246;28;8859;-60
2022/10/03 00:56:08;;;;;;;;;2.00;2.00;;;;;10.86;78.53;100746.97;5034728;28;8860;-61
2022/10/03 00:58:37;;;;;;;;;3.25;2.50;;;;;10.86;78.55;100754.13;5035274;28;8820;-60
2022/10/03 01:01:05;;;;;;;;;4.00;4.00;;;;;10.85;78.81;100757.75;5036109;28;8819;-61
2022/10/03 01:03:33;;;;;;;;;2.00;1.00;;;;;10.87;78.50;100754.03;5036448;28;9625;-62
2022/10/03 01:06:01;;;;;;;;;3.25;3.25;;;;;10.89;78.40;100757.44;5036491;28;8864;-61
2022/10/03 01:08:28;;;;;;;;;2.00;1.00;;;;;10.92;78.32;100759.88;5036137;28;8914;-60
2022/10/03 01:10:56;;;;;;;;;4.00;3.50;;;;;10.96;78.75;100758.72;5036103;28;9595;-60
2022/10/03 01:13:25;;;;;;;;;1.50;1.50;;;;;11.02;78.36;100766.31;5036261;28;8832;-60
2022/10/03 01:15:53;;;;;;;;;4.50;3.00;;;;;11.08;77.87;100763.19;5036087;28;8844;-60
2022/10/03 01:18:21;;;;;;;;;5.00;3.50;;;;;11.16;77.87;100766.19;5035408;28;8869;-60
2022/10/03 01:20:48;;;;;;;;;3.75;3.25;;;;;11.24;78.24;100763.84;5035940;28;8851;-60
2022/10/03 01:23:16;;;;;;;;;11.75;7.25;;;;;11.31;77.80;100770.47;5034855;28;8836;-60
2022/10/03 01:25:43;;;;;;;;;6.00;5.00;;;;;11.36;77.40;100771.00;5035391;28;8854;-60
2022/10/03 01:30:56;;;;;;;;;2.75;1.00;;;;;11.42;77.50;100757.25;5005208;28;9027;-60
2022/10/03 01:33:24;;;;;;;;;3.25;3.00;;;;;11.45;77.27;100767.69;5035368;28;8852;-61
2022/10/03 01:35:53;;;;;;;;;2.50;2.00;;;;;11.46;77.38;100769.38;5035731;28;9517;-61
2022/10/03 01:38:21;;;;;;;;;3.75;3.50;;;;;11.48;77.77;100772.81;5035292;28;8944;-61
2022/10/03 01:40:48;;;;;;;;;2.00;2.00;;;;;11.49;77.64;100763.84;5035695;28;9525;-60
2022/10/03 01:43:19;;;;;;;;;3.75;3.75;;;;;11.46;77.91;100766.72;5036228;28;9627;-60
2022/10/03 01:45:46;;;;;;;;;2.50;2.50;;;;;11.42;77.90;100772.38;5035882;28;8862;-61
2022/10/03 01:48:14;;;;;;;;;3.75;3.75;;;;;11.38;78.03;100776.25;5035552;28;9493;-60
2022/10/03 01:50:42;;;;;;;;;3.00;3.00;;;;;11.33;78.19;100773.03;5015621;28;8865;-60
2022/10/03 01:53:10;;;;;;;;;3.75;3.75;;;;;11.26;77.80;100772.59;5015826;28;8892;-60
2022/10/03 01:55:38;;;;;;;;;7.50;5.00;;;;;11.22;78.26;100776.44;5015632;28;8850;-60
2022/10/03 01:58:06;;;;;;;;;4.00;3.00;;;;;11.16;78.48;100771.50;5016729;28;8919;-60
2022/10/03 02:00:34;;;;;;;;;4.25;3.75;;;;;11.14;78.31;100778.78;5015903;28;8858;-60
2022/10/03 02:03:01;;;;;;;;;4.00;4.00;;;;;11.13;78.25;100777.06;5015742;28;8920;-60
2022/10/03 02:05:29;;;;;;;;;4.00;3.00;;;;;11.13;78.16;100777.06;5015415;28;8846;-60
2022/10/03 02:07:57;;;;;;;;;3.50;3.50;;;;;11.16;78.49;100776.00;5023242;28;9493;-60
2022/10/03 02:10:25;;;;;;;;;6.75;5.00;;;;;11.19;78.39;100784.66;5035420;28;8839;-61
2022/10/03 02:12:53;;;;;;;;;4.50;3.25;;;;;11.23;77.94;100782.63;5035309;28;8918;-61
2022/10/03 02:15:21;;;;;;;;;7.75;5.50;;;;;11.26;77.90;100788.59;5035216;28;8828;-61
2022/10/03 02:17:51;;;;;;;;;2.50;2.50;;;;;11.28;78.43;100792.00;5025840;28;8912;-60
2022/10/03 02:20:22;;;;;;;;;1.00;1.00;;;;;11.29;78.29;100793.72;5015357;28;8913;-60
2022/10/03 02:22:50;;;;;;;;;3.00;3.00;;;;;11.27;78.14;100792.97;5015112;28;8849;-61
2022/10/03 02:25:18;;;;;;;;;3.50;3.25;;;;;11.27;78.30;100792.09;5015391;28;8851;-60
2022/10/03 02:27:46;;;;;;;;;4.00;4.00;;;;;11.28;78.12;100789.34;5023537;28;8828;-60
2022/10/03 02:30:13;;;;;;;;;4.00;3.75;;;;;11.31;78.42;100797.13;5035291;28;8933;-61
2022/10/03 02:32:41;;;;;;;;;3.00;3.00;;;;;11.34;77.99;100791.59;5035121;28;8883;-60
2022/10/03 02:35:09;;;;;;;;;6.50;6.25;;;;;11.37;77.76;100795.88;5034666;28;8836;-60
2022/10/03 02:37:37;;;;;;;;;3.50;3.00;;;;;11.39;78.05;100799.28;5027878;28;8839;-60
2022/10/03 02:40:05;;;;;;;;;6.50;5.00;;;;;11.40;78.25;100801.84;5015019;28;8830;-60
2022/10/03 02:42:33;;;;;;;;;6.25;6.25;;;;;11.39;78.31;100804.59;5015083;28;9615;-60
2022/10/03 02:45:00;;;;;;;;;5.00;3.25;;;;;11.37;77.85;100807.38;5014586;28;9541;-60
2022/10/03 02:47:28;;;;;;;;;1.75;1.50;;;;;11.35;78.07;100819.09;5019980;28;8902;-60
2022/10/03 02:49:56;;;;;;;;;3.75;3.25;;;;;11.31;77.89;100810.44;5034814;28;8913;-60
2022/10/03 02:52:24;;;;;;;;;4.50;4.00;;;;;11.28;78.05;100821.34;5034668;28;8913;-60
2022/10/03 02:54:52;;;;;;;;;5.50;4.00;;;;;11.25;77.97;100818.91;5034929;28;8860;-60
2022/10/03 02:57:19;;;;;;;;;4.00;3.00;;;;;11.25;78.40;100823.34;5030165;28;8858;-61
2022/10/03 02:59:47;;;;;;;;;6.00;4.50;;;;;11.23;78.29;100812.78;5015159;28;8830;-60
2022/10/03 03:02:14;;;;;;;;;3.75;3.25;;;;;11.20;78.34;100813.00;5014722;28;8838;-61
2022/10/03 03:04:42;;;;;;;;;2.00;1.00;;;;;11.16;78.53;100818.66;5014401;28;8868;-61
2022/10/03 03:07:10;;;;;;;;;3.50;3.50;;;;;11.12;79.02;100825.16;5016804;28;8838;-60
2022/10/03 03:09:38;;;;;;;;;4.50;4.00;;;;;11.08;78.69;100826.31;5033954;28;8909;-60
2022/10/03 03:12:05;;;;;;;;;4.50;3.00;;;;;11.05;79.11;100823.84;5037761;28;8913;-60
2022/10/03 03:14:33;;;;;;;;;3.75;3.75;;;;;11.01;78.83;100827.69;5038262;28;8848;-60
2022/10/03 03:17:01;;;;;;;;;6.50;5.00;;;;;10.97;78.74;100823.50;5037325;28;8909;-60
2022/10/03 03:19:28;;;;;;;;;3.50;3.50;;;;;10.95;78.92;100834.28;5018211;28;8928;-61
2022/10/03 03:21:56;;;;;;;;;5.50;4.25;;;;;10.92;78.74;100825.66;5018598;28;8834;-61
2022/10/03 03:24:24;;;;;;;;;6.00;5.50;;;;;10.89;79.32;100829.38;5018462;28;8826;-61
2022/10/03 03:26:52;;;;;;;;;2.00;2.00;;;;;10.85;79.38;100825.19;5018477;28;8838;-60
2022/10/03 03:29:19;;;;;;;;;0.50;0.00;;;;;10.82;79.33;100828.06;5037918;28;8923;-61
2022/10/03 03:31:47;;;;;;;;;3.00;3.00;;;;;10.79;79.38;100832.75;5038179;28;8836;-61
2022/10/03 03:34:15;;;;;;;;;5.50;5.50;;;;;10.74;79.44;100833.06;5038131;28;8855;-61
2022/10/03 03:36:42;;;;;;;;;4.00;4.00;;;;;10.70;79.70;100834.19;5037817;28;8835;-61
2022/10/03 03:39:10;;;;;;;;;5.50;4.00;;;;;10.67;79.58;100837.06;5037937;28;8816;-60
2022/10/03 03:41:38;;;;;;;;;3.00;3.00;;;;;10.63;79.92;100840.88;5038518;28;8836;-60
2022/10/03 03:44:07;;;;;;;;;2.00;1.50;;;;;10.62;79.48;100831.19;5037343;28;8909;-61
2022/10/03 03:46:34;;;;;;;;;4.00;3.00;;;;;10.57;79.39;100835.97;5037308;28;8909;-59
2022/10/03 03:49:02;;;;;;;;;5.00;5.00;;;;;10.53;79.73;100837.13;5037438;28;9575;-60
2022/10/03 03:51:32;;;;;;;;;4.00;3.75;;;;;10.50;80.06;100833.78;5037733;28;8854;-60
2022/10/03 03:53:59;;;;;;;;;5.50;5.25;;;;;10.46;80.20;100838.47;5038071;28;8898;-60
2022/10/03 03:56:27;;;;;;;;;6.75;5.50;;;;;10.44;80.05;100839.50;5038007;28;8851;-61
2022/10/03 03:58:54;;;;;;;;;5.50;4.50;;;;;10.42;80.17;100842.31;5037037;28;8847;-60
2022/10/03 04:01:22;;;;;;;;;6.00;5.50;;;;;10.40;80.11;100838.84;5037138;28;8832;-61
2022/10/03 04:03:51;;;;;;;;;3.25;2.50;;;;;10.42;80.01;100836.97;5037186;28;8878;-60
2022/10/03 04:06:19;;;;;;;;;6.00;5.00;;;;;10.40;79.89;100846.00;5037399;28;8836;-60
2022/10/03 04:08:47;;;;;;;;;4.00;4.00;;;;;10.41;80.16;100845.88;5037198;28;8812;-61
2022/10/03 04:11:16;;;;;;;;;5.00;5.00;;;;;10.41;80.26;100839.72;5037117;28;8840;-61
2022/10/03 04:13:46;;;;;;;;;5.50;4.00;;;;;10.41;80.32;100842.38;5037171;28;8929;-60
2022/10/03 04:16:14;;;;;;;;;4.00;4.00;;;;;10.41;80.25;100842.38;5037231;28;8925;-60
2022/10/03 04:18:58;;;;;;;;;6.50;4.50;;;;;10.43;79.68;100848.47;5036833;28;8832;-60
2022/10/03 04:21:27;;;;;;;;;6.00;6.00;;;;;10.44;79.71;100848.38;5036542;28;8836;-61
2022/10/03 04:23:57;;;;;;;;;6.00;6.00;;;;;10.45;79.73;100847.41;5037227;28;8848;-60
2022/10/03 04:26:27;;;;;;;;;6.25;6.25;;;;;10.47;79.89;100853.47;5036954;28;8847;-60
2022/10/03 04:28:55;;;;;;;;;9.00;6.75;;;;;10.50;79.51;100866.63;5037375;28;9588;-60
2022/10/03 04:31:23;;;;;;;;;6.50;6.50;;;;;10.51;79.72;100852.34;5036808;28;8827;-61
2022/10/03 04:33:53;;;;;;;;;6.00;6.00;;;;;10.55;79.43;100853.00;5037169;28;8854;-63
2022/10/03 04:36:21;;;;;;;;;6.75;6.75;;;;;10.56;79.48;100858.22;5035516;28;8836;-61
2022/10/03 04:38:49;;;;;;;;;6.00;6.00;;;;;10.57;79.29;100857.28;5036518;28;8961;-60
2022/10/03 04:41:16;;;;;;;;;8.50;6.75;;;;;10.60;79.64;100862.41;5036381;28;8832;-60
2022/10/03 04:43:44;;;;;;;;;3.75;3.00;;;;;10.65;79.60;100859.44;5036022;28;8902;-61
2022/10/03 04:46:12;;;;;;;;;6.25;6.00;;;;;10.71;79.58;100853.72;5036919;28;9587;-61
2022/10/03 04:48:40;;;;;;;;;8.25;7.00;;;;;10.76;79.14;100852.44;5036743;28;8824;-60
2022/10/03 04:51:07;;;;;;;;;3.75;3.75;;;;;10.82;79.51;100851.19;5035718;28;8820;-60
2022/10/03 04:53:39;;;;;;;;;7.50;6.50;;;;;10.87;78.84;100849.06;5036558;28;8852;-60
2022/10/03 04:56:08;;;;;;;;;8.75;7.00;;;;;10.92;78.89;100855.81;5036047;28;8840;-60
2022/10/03 04:58:36;;;;;;;;;6.00;6.00;;;;;10.96;78.89;100849.31;5036360;28;8839;-60
2022/10/03 05:01:05;;;;;;;;;8.50;7.00;;;;;11.01;78.80;100859.69;5035520;28;8833;-60
2022/10/03 05:03:33;;;;;;;;;5.00;5.00;;;;;11.04;78.94;100860.31;5035752;28;8868;-61
2022/10/03 05:06:01;;;;;;;;;9.50;8.00;;;;;11.07;78.90;100845.94;5036189;28;9525;-61
2022/10/03 05:08:29;;;;;;;;;6.25;5.50;;;;;11.09;78.79;100846.69;5036545;28;8922;-60
2022/10/03 05:10:57;;;;;;;;;8.00;7.50;;;;;11.10;78.84;100846.59;5035546;28;8909;-61
2022/10/03 05:13:27;;;;;;;;;3.75;3.50;;;;;11.13;78.52;100861.50;5035641;28;8843;-61
2022/10/03 05:15:54;;;;;;;;;6.00;6.00;;;;;11.13;78.76;100862.38;5035749;28;8880;-60
2022/10/03 05:18:22;;;;;;;;;6.00;4.00;;;;;11.13;78.78;100857.03;5034666;28;8848;-60
2022/10/03 05:20:53;;;;;;;;;3.25;3.25;;;;;11.15;78.60;100867.59;5035483;28;8808;-61
2022/10/03 05:23:21;;;;;;;;;8.00;8.00;;;;;11.14;78.71;100864.06;5036508;28;8912;-60
2022/10/03 05:25:52;;;;;;;;;6.75;5.00;;;;;11.15;78.80;100868.44;5035123;28;8913;-61
2022/10/03 05:28:21;;;;;;;;;7.00;7.00;;;;;11.16;78.89;100874.66;5036109;28;8835;-60
2022/10/03 05:30:52;;;;;;;;;7.00;6.25;;;;;11.15;78.61;100873.78;5035571;28;8835;-59
2022/10/03 05:33:20;;;;;;;;;10.75;9.50;;;;;11.18;78.45;100881.59;5034951;28;8852;-61
2022/10/03 05:35:49;;;;;;;;;3.00;3.00;;;;;11.21;78.49;100875.19;5035419;28;8828;-61
2022/10/03 05:38:17;;;;;;;;;7.50;6.50;;;;;11.21;78.17;100876.03;5034747;28;8921;-61
2022/10/03 05:40:45;;;;;;;;;8.00;6.75;;;;;11.23;78.65;100879.44;5034692;28;8832;-60
2022/10/03 05:43:12;;;;;;;;;9.75;8.50;;;;;11.25;78.45;100874.88;5035142;28;8856;-61
2022/10/03 05:45:40;;;;;;;;;6.25;6.00;;;;;11.27;78.83;100878.28;5035161;28;8921;-60
2022/10/03 05:48:08;;;;;;;;;9.00;7.00;;;;;11.28;78.28;100873.81;5035417;28;8870;-61
2022/10/03 05:50:37;;;;;;;;;5.00;5.00;;;;;11.31;78.42;100877.13;5034574;28;8905;-61
2022/10/03 05:53:06;;;;;;;;;9.25;6.75;;;;;11.33;78.30;100872.56;5034154;28;8957;-60
2022/10/03 05:55:34;;;;;;;;;7.00;6.50;;;;;11.34;78.67;100876.06;5034295;28;8917;-60
2022/10/03 05:58:01;;;;;;;;;9.00;6.00;;;;;11.34;78.30;100879.59;5033926;28;8840;-60
2022/10/03 06:00:29;;;;;;;;;6.00;6.00;;;;;11.34;78.46;100876.94;5033434;28;8820;-60
2022/10/03 06:02:57;;;;;;;;;6.25;5.25;;;;;11.34;78.78;100886.72;5033816;28;8941;-60
2022/10/03 06:05:25;;;;;;;;;4.00;4.00;;;;;11.29;78.29;100884.38;5034028;28;8937;-60
2022/10/03 06:07:53;;;;;;;;;7.50;6.25;;;;;11.27;78.80;100888.09;5033473;28;8832;-60
2022/10/03 06:10:20;;;;;;;;;6.75;6.25;;;;;11.24;79.01;100881.16;5033014;28;8844;-60
2022/10/03 06:12:48;;;;;;;;;2.75;1.00;;;;;11.24;78.68;100888.31;5033543;28;8835;-61
2022/10/03 06:15:16;;;;;;;;;6.75;6.00;;;;;11.25;78.64;100898.00;5033746;28;8860;-60
2022/10/03 06:17:44;;;;;;;;;5.50;5.50;;;;;11.23;78.69;100898.09;5034739;28;8827;-60
2022/10/03 06:20:11;;;;;;;;;7.00;6.75;;;;;11.21;78.95;100908.03;5035516;28;8820;-60
2022/10/03 06:22:39;;;;;;;;;8.50;8.50;;;;;11.20;79.17;100902.78;5035842;28;8832;-60
2022/10/03 06:25:07;;;;;;;;;7.00;6.00;;;;;11.19;79.18;100911.75;5035643;28;8905;-60
2022/10/03 06:27:34;;;;;;;;;6.00;6.00;;;;;11.20;78.90;100910.78;5035434;28;8860;-61
2022/10/03 06:30:02;;;;;;;;;9.75;8.00;;;;;11.19;79.31;100912.63;5034806;28;8832;-61
2022/10/03 06:32:30;;;;;;;;;5.00;4.00;;;;;11.21;79.18;100913.34;5035282;28;8856;-60
2022/10/03 06:34:58;;;;;;;;;7.50;7.00;;;;;11.25;79.00;100920.22;5035227;28;8828;-61
2022/10/03 06:37:26;;;;;;;;;10.50;9.50;;;;;11.26;79.13;100919.25;5035456;28;8852;-60
2022/10/03 06:39:53;;;;;;;;;6.00;6.00;;;;;11.26;79.05;100916.59;5034744;28;8820;-60
2022/10/03 06:42:21;;;;;;;;;7.00;6.25;;;;;11.30;79.01;100918.06;5035331;28;8831;-61
2022/10/03 06:44:49;;;;;;;;;6.00;6.00;;;;;11.35;78.51;100913.28;5035087;28;9502;-60
2022/10/03 06:47:16;;;;;;;;;5.50;5.00;;;;;11.43;78.45;100902.97;5039158;28;8832;-60
2022/10/03 06:49:44;;;;;;;;;9.25;7.00;;;;;11.50;77.82;100914.06;5039154;28;8953;-60
2022/10/03 06:52:12;;;;;;;;;7.50;6.25;;;;;11.59;78.20;100914.31;5039168;28;8820;-61
2022/10/03 06:54:39;;;;;;;;;7.50;7.50;;;;;11.70;78.17;100911.81;5039047;28;8839;-60
2022/10/03 06:57:07;;;;;;;;;4.00;4.00;;;;;11.80;77.68;100912.84;5039236;28;8840;-61
2022/10/03 06:59:36;;;;;;;;;6.50;6.00;;;;;11.90;77.88;100913.09;5038869;28;8844;-60
2022/10/03 07:02:03;;;;;;;;;6.00;5.00;;;;;11.98;77.48;100914.25;5039186;28;8843;-60
2022/10/03 07:04:31;;;;;;;;;4.67;4.00;;;;;12.03;77.15;100912.97;5039633;28;9618;-60
2022/10/03 07:06:59;;;;;;;;;5.50;4.00;;;;;12.07;77.24;100913.63;5039039;28;8840;-60
2022/10/03 07:09:27;;;;;;;;;7.00;7.00;;;;;12.09;77.36;100920.53;5038596;28;8863;-60
2022/10/03 07:11:55;;;;;;;;;6.00;6.00;;;;;12.11;77.30;100923.09;5039106;28;8889;-60
2022/10/03 07:14:23;;;;;;;;;6.00;6.00;;;;;12.09;77.10;100919.69;5039343;28;8840;-61
2022/10/03 07:16:51;;;;;;;;;4.00;3.50;;;;;12.09;77.62;100928.53;5039213;28;8901;-62
2022/10/03 07:19:20;;;;;;;;;12.25;9.50;;;;;12.06;77.66;100933.25;5038551;28;8816;-60
2022/10/03 07:21:49;;;;;;;;;15.50;10.00;;;;;12.03;77.75;100928.13;5038762;28;8901;-60
2022/10/03 07:24:16;;;;;;;;;9.25;9.25;;;;;12.01;77.54;100938.06;5038373;28;8823;-62
2022/10/03 07:26:44;;;;;;;;;13.00;12.00;;;;;11.99;77.59;100934.63;5038380;28;8828;-61
2022/10/03 07:29:11;;;;;;;;;12.25;9.25;;;;;12.00;77.84;100936.38;5038450;28;9559;-62
2022/10/03 07:31:39;;;;;;;;;7.00;7.00;;;;;12.04;77.64;100945.84;5038637;28;8852;-61
2022/10/03 07:34:07;;;;;;;;;23.50;19.75;;;;;12.07;77.60;100934.97;5038250;28;8860;-61
2022/10/03 07:39:20;;;;;;;;;6.50;4.00;;;;;12.28;77.54;100941.47;5037955;28;8906;-61
2022/10/03 07:41:50;;;;;;;;;7.00;7.00;;;;;12.43;77.20;100953.72;5038359;28;9529;-63
2022/10/03 07:44:18;;;;;;;;;11.25;11.00;;;;;12.55;77.27;100944.84;5038880;28;8840;-60
2022/10/03 07:46:46;;;;;;;;;5.50;5.50;;;;;12.66;76.83;100952.94;5038099;28;8828;-61
2022/10/03 07:49:13;;;;;;;;;15.00;12.75;;;;;12.77;76.44;100953.03;5038058;28;8902;-61
2022/10/03 07:51:45;;;;;;;;;9.50;8.50;;;;;12.89;76.55;100960.13;5038356;28;8836;-61
2022/10/03 07:54:12;;;;;;;;;10.50;9.50;;;;;12.94;76.41;100958.91;5038471;28;8925;-60
2022/10/03 07:56:40;;;;;;;;;11.50;11.50;;;;;12.94;76.68;100963.34;5037985;28;8860;-60
2022/10/03 07:59:08;;;;;;;;;9.25;7.00;;;;;12.95;76.61;100957.06;5037542;28;8955;-60
2022/10/03 08:01:36;;;;;;;;;11.25;9.25;;;;;12.99;76.51;100964.75;5038080;28;8828;-61
2022/10/03 08:04:04;;;;;;;;;6.50;6.25;;;;;13.09;76.35;100968.47;5038289;28;8925;-61
2022/10/03 08:06:32;;;;;;;;;9.25;9.00;;;;;13.22;76.29;100963.91;5038231;28;8874;-62
2022/10/03 08:09:00;;;;;;;;;4.00;4.00;;;;;13.42;75.54;100962.41;5037015;28;8820;-61
2022/10/03 08:11:28;;;;;;;;;6.75;6.00;;;;;13.58;75.33;100969.19;5037737;28;8859;-62
2022/10/03 08:13:56;;;;;;;;;16.00;15.75;;;;;13.76;75.30;100964.25;5038306;28;9537;-62
2022/10/03 08:16:24;;;;;;;;;11.00;9.00;;;;;13.83;75.18;100955.63;5037264;28;8840;-61
2022/10/03 08:18:52;;;;;;;;;21.00;21.00;;;;;13.91;75.05;100961.28;5037389;28;8856;-62
2022/10/03 08:21:20;;;;;;;;;9.00;9.00;;;;;14.03;74.43;100960.31;5036440;28;8820;-61
2022/10/03 08:23:48;;;;;;;;;8.00;7.50;;;;;14.24;74.93;100961.34;5036317;28;8986;-61
2022/10/03 08:26:16;;;;;;;;;6.75;6.50;;;;;14.50;73.88;100968.16;5035772;28;8936;-62
2022/10/03 08:28:43;;;;;;;;;6.50;6.00;;;;;14.79;73.50;100968.53;5035485;28;9591;-61
2022/10/03 08:31:11;;;;;;;;;2.20;0.00;;;;;15.00;73.07;100969.47;5035755;28;8843;-61
2022/10/03 08:33:40;;;;;;;;;7.00;7.00;;;;;15.17;72.45;100968.97;5036434;28;8942;-62
2022/10/03 08:36:08;;;;;;;;;6.00;5.00;;;;;15.22;72.72;100964.91;5036270;28;8839;-61
2022/10/03 08:38:36;;;;;;;;;6.20;5.60;;;;;15.16;72.55;100968.09;5036217;28;8986;-61
2022/10/03 08:41:03;;;;;;;;;8.00;7.00;;;;;15.05;73.22;100976.19;5035428;28;8958;-61
2022/10/03 08:43:32;;;;;;;;;6.50;6.50;;;;;14.94;73.75;100980.72;5036290;28;8847;-62
2022/10/03 08:46:00;;;;;;;;;5.00;4.00;;;;;14.80;73.68;100983.66;5036290;28;9506;-61
2022/10/03 08:48:28;;;;;;;;;5.60;4.00;;;;;14.67;74.15;100986.47;5036206;28;8993;-61
2022/10/03 08:50:56;;;;;;;;;7.00;6.00;;;;;14.58;74.42;100987.19;5036571;28;8859;-61
2022/10/03 08:53:24;;;;;;;;;4.25;3.50;;;;;14.62;74.56;100987.78;5036706;28;8824;-61
2022/10/03 08:55:54;;;;;;;;;5.00;3.75;;;;;14.68;73.96;100985.50;5036894;28;8836;-61
2022/10/03 08:58:22;;;;;;;;;6.75;6.50;;;;;14.78;74.38;100981.09;5036529;28;9749;-61
2022/10/03 09:00:51;;;;;;;;;5.00;5.00;;;;;14.92;73.51;100980.84;5036726;28;8844;-62
2022/10/03 09:03:19;;;;;;;;;6.00;5.00;;;;;15.17;72.52;100977.00;5036511;28;8855;-60
2022/10/03 09:06:01;;;;;;;;;9.20;6.80;;;;;15.34;72.41;100981.88;5036597;28;8850;-60
2022/10/03 09:08:30;;;;;;;;;8.00;6.50;;;;;15.38;72.33;100978.81;5033890;28;8847;-62
2022/10/03 09:10:57;;;;;;;;;6.00;6.00;;;;;15.33;72.39;100986.38;5035415;28;8820;-62
2022/10/03 09:13:25;;;;;;;;;4.00;4.00;;;;;15.29;72.58;100994.78;5035313;28;8832;-61
2022/10/03 09:15:53;;;;;;;;;10.00;9.00;;;;;15.26;72.61;100987.81;5034831;28;8832;-61
2022/10/03 09:18:21;;;;;;;;;4.00;4.00;;;;;15.25;72.92;100987.97;5035923;28;8831;-60
2022/10/03 09:20:49;;;;;;;;;6.00;6.00;;;;;15.37;72.85;100987.84;5035232;28;8993;-61
2022/10/03 09:23:17;;;;;;;;;7.00;6.00;;;;;15.63;72.20;100985.69;5035294;28;8839;-61
2022/10/03 09:25:45;;;;;;;;;6.00;4.40;;;;;15.91;71.39;100971.63;5034706;28;8832;-60
2022/10/03 09:28:13;;;;;;;;;6.80;6.00;;;;;16.11;71.32;100978.81;5036096;28;9632;-60
2022/10/03 09:30:41;;;;;;;;;7.40;7.00;;;;;16.27;70.81;100977.38;5035179;28;8844;-61
2022/10/03 09:33:09;;;;;;;;;7.40;6.80;;;;;16.40;70.49;100973.50;5034546;28;8868;-60
2022/10/03 09:35:37;;;;;;;;;3.80;3.80;;;;;16.56;70.78;100976.56;5034718;28;8901;-61
2022/10/03 09:38:05;;;;;;;;;3.20;3.00;;;;;16.76;69.86;100975.66;5034428;28;8827;-60
2022/10/03 09:40:33;;;;;;;;;3.80;3.00;;;;;16.82;69.75;100979.63;5034553;28;8925;-60
2022/10/03 09:43:00;;;;;;;;;2.60;2.60;;;;;16.87;69.71;100972.00;5035096;28;8856;-61
2022/10/03 09:45:29;;;;;;;;;6.00;4.00;;;;;16.93;69.86;100974.16;5034083;28;8874;-61
2022/10/03 09:47:57;;;;;;;;;1.00;1.00;;;;;17.08;69.61;100978.19;5034897;28;9565;-61
2022/10/03 09:50:27;;;;;;;;;8.60;6.00;;;;;17.27;69.46;100968.28;5035074;28;8896;-60
2022/10/03 09:52:55;;;;;;;;;3.20;3.20;;;;;17.47;68.90;100966.50;5033653;28;8870;-60
2022/10/03 09:55:24;;;;;;;;;2.20;2.20;;;;;17.41;68.77;100959.84;5033089;28;8905;-61
2022/10/03 09:57:52;;;;;;;;;0.40;0.40;;;;;17.23;69.64;100953.38;5034266;28;8847;-60
2022/10/03 10:00:20;;;;;;;;;0.40;0.40;;;;;17.19;69.84;100954.69;5034761;28;8887;-61
2022/10/03 10:02:48;;;;;;;;;1.00;1.00;;;;;17.18;69.69;100963.75;5033746;28;9852;-61
2022/10/03 10:05:16;;;;;;;;;1.00;1.00;;;;;16.98;70.08;100962.00;5033600;28;8832;-62
2022/10/03 10:07:44;;;;;;;;;1.00;1.00;;;;;16.84;70.27;100958.81;5033859;28;8855;-61
2022/10/03 10:10:13;;;;;;;;;3.00;3.00;;;;;16.72;70.96;100963.44;5032856;28;8917;-61
2022/10/03 10:12:41;;;;;;;;;1.60;0.60;;;;;16.69;71.08;100960.19;5033388;28;8864;-60
2022/10/03 10:15:10;;;;;;;;;1.40;1.40;;;;;17.02;70.10;100963.41;5033572;28;8858;-61
2022/10/03 10:17:37;;;;;;;;;0.00;0.00;;;;;17.11;70.18;100959.91;5034020;28;8883;-60
2022/10/03 10:20:06;;;;;;;;;2.60;2.60;;;;;17.04;70.53;100952.50;5033409;28;8832;-61
2022/10/03 10:22:34;;;;;;;;;1.00;1.00;;;;;16.96;69.93;100957.72;5033421;28;8820;-60
2022/10/03 10:25:02;;;;;;;;;4.00;3.00;;;;;16.88;70.51;100960.25;5033377;28;8836;-61
2022/10/03 10:27:30;;;;;;;;;1.80;1.00;;;;;16.80;70.71;100957.41;5013394;28;8885;-62
2022/10/03 10:29:58;;;;;;;;;3.00;3.00;;;;;16.75;70.73;100960.50;5013448;28;9000;-61
2022/10/03 10:32:26;;;;;;;;;5.60;4.80;;;;;16.99;70.17;100957.44;5011634;28;9532;-61
2022/10/03 10:34:54;;;;;;;;;1.40;1.00;;;;;17.56;68.78;100953.03;5011890;28;8838;-60
2022/10/03 10:37:22;;;;;;;;;2.20;1.00;;;;;18.28;66.82;100945.28;5030046;28;8820;-61
2022/10/03 10:39:51;;;;;;;;;1.00;1.00;;;;;18.75;66.42;100939.72;5032264;28;8877;-61
2022/10/03 10:42:19;;;;;;;;;0.00;0.00;;;;;19.00;65.94;100943.56;5031257;28;8922;-60
2022/10/03 10:44:47;;;;;;;;;3.00;3.00;;;;;18.82;66.06;100943.50;5032177;28;8882;-62
2022/10/03 10:47:16;;;;;;;;;1.00;1.00;;;;;18.45;67.27;100961.56;5031969;28;8816;-61
2022/10/03 10:49:44;;;;;;;;;0.20;0.00;;;;;18.12;68.29;100947.72;5031748;28;8986;-61
2022/10/03 10:52:12;;;;;;;;;1.00;1.00;;;;;17.88;68.76;100942.81;5031581;28;8852;-61
2022/10/03 10:54:41;;;;;;;;;3.00;3.00;;;;;17.77;68.58;100942.94;5032256;28;8855;-61
2022/10/03 10:57:09;;;;;;;;;3.60;1.40;;;;;17.72;68.67;100939.84;5032580;28;8859;-61
2022/10/03 10:59:38;;;;;;;;;1.80;1.40;;;;;17.75;69.14;100944.09;5032367;28;8839;-61
2022/10/03 11:02:05;;;;;;;;;0.40;0.40;;;;;17.75;68.89;100939.56;5031913;28;9850;-61
2022/10/03 11:04:33;;;;;;;;;0.00;0.00;;;;;17.78;68.65;100935.72;5031906;28;8857;-61
2022/10/03 11:07:01;;;;;;;;;1.40;1.00;;;;;17.90;68.16;100935.41;5030909;28;8847;-61
2022/10/03 11:09:29;;;;;;;;;0.80;0.80;;;;;18.12;67.97;100937.78;5031245;28;8978;-61
2022/10/03 11:11:57;;;;;;;;;0.60;0.60;;;;;18.40;67.29;100936.91;5030640;28;9168;-61
2022/10/03 11:14:27;;;;;;;;;2.60;1.40;;;;;18.56;66.82;100939.81;5030774;28;8839;-61
2022/10/03 11:16:55;;;;;;;;;1.00;0.40;;;;;18.50;67.13;100929.59;5031099;28;8823;-61
2022/10/03 11:19:25;;;;;;;;;1.80;1.00;;;;;18.47;66.85;100938.00;5031904;28;8847;-61
2022/10/03 11:21:53;;;;;;;;;1.40;1.40;;;;;18.63;66.44;100938.22;5031502;28;8846;-60
2022/10/03 11:24:21;;;;;;;;;1.80;1.80;;;;;18.52;67.06;100938.38;5030686;28;8820;-60
2022/10/03 11:26:50;;;;;;;;;1.00;1.00;;;;;18.25;67.01;100937.47;5031291;28;8852;-61
2022/10/03 11:29:17;;;;;;;;;0.80;0.80;;;;;18.03;67.87;100935.97;5031151;28;8937;-61
2022/10/03 11:31:45;;;;;;;;;1.40;1.00;;;;;17.84;68.23;100930.59;5033190;28;8844;-61
2022/10/03 11:34:13;;;;;;;;;0.00;0.00;;;;;17.66;68.60;100935.03;5035381;28;8863;-61
2022/10/03 11:36:42;;;;;;;;;1.00;1.00;;;;;17.49;69.49;100930.34;5035419;28;8970;-62
2022/10/03 11:39:14;;;;;;;;;1.00;1.00;;;;;17.37;69.04;100933.31;5035715;28;9848;-62
2022/10/03 11:41:42;;;;;;;;;1.00;0.00;;;;;17.41;69.29;100919.44;5035073;28;8852;-63